sensor_id;sensor_type;location;lat;lon;timestamp;P1;durP1;ratioP1;P2;durP2;ratioP2
28529;SDS011;15737;49.760;6.632;2023-05-10T00:02:23;1.07;;;0.97;;
28529;SDS011;15737;49.760;6.632;2023-05-10T00:04:49;0.60;;;0.53;;
28529;SDS011;15737;49.760;6.632;2023-05-10T00:07:15;2.83;;;0.80;;
28529;SDS011;15737;49.760;6.632;2023-05-10T00:09:42;1.00;;;0.77;;
28529;SDS011;15737;49.760;6.632;2023-05-10T00:12:08;0.67;;;0.67;;
28529;SDS011;15737;49.760;6.632;2023-05-10T00:14:33;1.17;;;1.07;;
28529;SDS011;15737;49.760;6.632;2023-05-10T00:16:59;1.20;;;0.97;;
28529;SDS011;15737;49.760;6.632;2023-05-10T00:19:25;0.60;;;0.47;;
28529;SDS011;15737;49.760;6.632;2023-05-10T00:21:50;1.00;;;1.00;;
28529;SDS011;15737;49.760;6.632;2023-05-10T00:24:16;1.00;;;1.00;;
28529;SDS011;15737;49.760;6.632;2023-05-10T00:26:41;1.30;;;0.83;;
28529;SDS011;15737;49.760;6.632;2023-05-10T00:29:07;0.80;;;0.80;;
28529;SDS011;15737;49.760;6.632;2023-05-10T00:31:32;0.93;;;0.90;;
28529;SDS011;15737;49.760;6.632;2023-05-10T00:33:58;1.00;;;1.00;;
28529;SDS011;15737;49.760;6.632;2023-05-10T00:36:23;1.10;;;1.00;;
28529;SDS011;15737;49.760;6.632;2023-05-10T00:38:49;1.03;;;0.90;;
28529;SDS011;15737;49.760;6.632;2023-05-10T00:41:15;0.70;;;0.70;;
28529;SDS011;15737;49.760;6.632;2023-05-10T00:43:40;1.13;;;1.03;;
28529;SDS011;15737;49.760;6.632;2023-05-10T00:46:06;0.73;;;0.73;;
28529;SDS011;15737;49.760;6.632;2023-05-10T00:48:32;1.03;;;0.93;;
28529;SDS011;15737;49.760;6.632;2023-05-10T00:50:57;1.40;;;1.30;;
28529;SDS011;15737;49.760;6.632;2023-05-10T00:53:23;1.27;;;1.17;;
28529;SDS011;15737;49.760;6.632;2023-05-10T00:55:49;1.03;;;0.90;;
28529;SDS011;15737;49.760;6.632;2023-05-10T00:58:15;1.13;;;1.13;;
28529;SDS011;15737;49.760;6.632;2023-05-10T01:00:42;1.13;;;1.03;;
28529;SDS011;15737;49.760;6.632;2023-05-10T01:03:09;1.53;;;1.10;;
28529;SDS011;15737;49.760;6.632;2023-05-10T01:05:36;1.50;;;1.40;;
28529;SDS011;15737;49.760;6.632;2023-05-10T01:08:02;1.27;;;1.13;;
28529;SDS011;15737;49.760;6.632;2023-05-10T01:10:28;1.40;;;1.30;;
28529;SDS011;15737;49.760;6.632;2023-05-10T01:12:54;0.73;;;0.70;;
28529;SDS011;15737;49.760;6.632;2023-05-10T01:15:20;1.07;;;0.97;;
28529;SDS011;15737;49.760;6.632;2023-05-10T01:17:46;1.20;;;1.10;;
28529;SDS011;15737;49.760;6.632;2023-05-10T01:20:13;0.87;;;0.87;;
28529;SDS011;15737;49.760;6.632;2023-05-10T01:28:27;1.10;;;1.00;;
28529;SDS011;15737;49.760;6.632;2023-05-10T01:31:17;1.53;;;1.27;;
28529;SDS011;15737;49.760;6.632;2023-05-10T01:34:02;1.37;;;1.27;;
28529;SDS011;15737;49.760;6.632;2023-05-10T01:36:40;1.33;;;1.23;;
28529;SDS011;15737;49.760;6.632;2023-05-10T01:39:16;1.50;;;1.40;;
28529;SDS011;15737;49.760;6.632;2023-05-10T01:41:51;1.30;;;1.20;;
28529;SDS011;15737;49.760;6.632;2023-05-10T01:44:24;1.20;;;1.10;;
28529;SDS011;15737;49.760;6.632;2023-05-10T01:47:10;1.20;;;1.10;;
28529;SDS011;15737;49.760;6.632;2023-05-10T01:49:52;1.00;;;1.00;;
28529;SDS011;15737;49.760;6.632;2023-05-10T01:52:22;1.50;;;1.40;;
28529;SDS011;15737;49.760;6.632;2023-05-10T01:54:55;1.70;;;1.60;;
28529;SDS011;15737;49.760;6.632;2023-05-10T01:57:28;1.60;;;1.50;;
28529;SDS011;15737;49.760;6.632;2023-05-10T02:00:03;1.30;;;1.20;;
28529;SDS011;15737;49.760;6.632;2023-05-10T02:02:30;2.23;;;1.23;;
28529;SDS011;15737;49.760;6.632;2023-05-10T02:05:01;2.13;;;1.33;;
28529;SDS011;15737;49.760;6.632;2023-05-10T02:07:30;1.47;;;1.30;;
28529;SDS011;15737;49.760;6.632;2023-05-10T02:09:56;9.53;;;1.77;;
28529;SDS011;15737;49.760;6.632;2023-05-10T02:12:23;1.30;;;1.20;;
28529;SDS011;15737;49.760;6.632;2023-05-10T02:14:49;1.63;;;1.27;;
28529;SDS011;15737;49.760;6.632;2023-05-10T02:17:17;1.23;;;1.00;;
28529;SDS011;15737;49.760;6.632;2023-05-10T02:19:44;1.77;;;1.67;;
28529;SDS011;15737;49.760;6.632;2023-05-10T02:22:11;1.70;;;1.60;;
28529;SDS011;15737;49.760;6.632;2023-05-10T02:24:37;2.23;;;1.40;;
28529;SDS011;15737;49.760;6.632;2023-05-10T02:27:04;1.70;;;1.60;;
28529;SDS011;15737;49.760;6.632;2023-05-10T02:29:31;1.50;;;1.40;;
28529;SDS011;15737;49.760;6.632;2023-05-10T02:31:58;1.07;;;1.00;;
28529;SDS011;15737;49.760;6.632;2023-05-10T02:34:25;2.07;;;1.87;;
28529;SDS011;15737;49.760;6.632;2023-05-10T02:36:52;1.40;;;1.30;;
28529;SDS011;15737;49.760;6.632;2023-05-10T02:39:19;1.20;;;1.10;;
28529;SDS011;15737;49.760;6.632;2023-05-10T02:41:46;1.27;;;1.17;;
28529;SDS011;15737;49.760;6.632;2023-05-10T02:44:14;1.97;;;1.77;;
28529;SDS011;15737;49.760;6.632;2023-05-10T02:46:42;1.40;;;1.20;;
28529;SDS011;15737;49.760;6.632;2023-05-10T02:49:08;4.47;;;1.77;;
28529;SDS011;15737;49.760;6.632;2023-05-10T02:51:34;1.60;;;1.50;;
28529;SDS011;15737;49.760;6.632;2023-05-10T02:54:04;1.50;;;1.40;;
28529;SDS011;15737;49.760;6.632;2023-05-10T02:56:36;1.33;;;1.23;;
28529;SDS011;15737;49.760;6.632;2023-05-10T02:59:05;1.60;;;1.50;;
28529;SDS011;15737;49.760;6.632;2023-05-10T03:01:31;1.17;;;1.07;;
28529;SDS011;15737;49.760;6.632;2023-05-10T03:03:57;1.90;;;1.70;;
28529;SDS011;15737;49.760;6.632;2023-05-10T03:06:22;1.47;;;1.37;;
28529;SDS011;15737;49.760;6.632;2023-05-10T03:08:48;1.87;;;1.73;;
28529;SDS011;15737;49.760;6.632;2023-05-10T03:13:56;2.73;;;1.90;;
28529;SDS011;15737;49.760;6.632;2023-05-10T03:16:27;2.93;;;2.50;;
28529;SDS011;15737;49.760;6.632;2023-05-10T03:21:34;2.07;;;1.87;;
28529;SDS011;15737;49.760;6.632;2023-05-10T03:24:05;1.83;;;1.70;;
28529;SDS011;15737;49.760;6.632;2023-05-10T03:26:32;3.77;;;2.40;;
28529;SDS011;15737;49.760;6.632;2023-05-10T03:28:59;3.43;;;2.50;;
28529;SDS011;15737;49.760;6.632;2023-05-10T03:31:26;1.63;;;1.53;;
28529;SDS011;15737;49.760;6.632;2023-05-10T03:33:52;2.33;;;2.13;;
28529;SDS011;15737;49.760;6.632;2023-05-10T03:36:18;2.87;;;2.03;;
28529;SDS011;15737;49.760;6.632;2023-05-10T03:38:44;2.33;;;2.13;;
28529;SDS011;15737;49.760;6.632;2023-05-10T03:41:10;2.80;;;2.20;;
28529;SDS011;15737;49.760;6.632;2023-05-10T03:43:36;3.07;;;2.10;;
28529;SDS011;15737;49.760;6.632;2023-05-10T03:46:02;1.77;;;1.67;;
28529;SDS011;15737;49.760;6.632;2023-05-10T03:48:28;2.20;;;2.00;;
28529;SDS011;15737;49.760;6.632;2023-05-10T03:50:54;3.67;;;2.73;;
28529;SDS011;15737;49.760;6.632;2023-05-10T03:53:19;2.77;;;1.97;;
28529;SDS011;15737;49.760;6.632;2023-05-10T03:55:45;4.63;;;1.63;;
28529;SDS011;15737;49.760;6.632;2023-05-10T03:58:11;19.30;;;2.90;;
28529;SDS011;15737;49.760;6.632;2023-05-10T04:00:37;3.33;;;2.33;;
28529;SDS011;15737;49.760;6.632;2023-05-10T04:03:08;2.10;;;1.90;;
28529;SDS011;15737;49.760;6.632;2023-05-10T04:05:34;2.37;;;2.17;;
28529;SDS011;15737;49.760;6.632;2023-05-10T04:08:00;1.70;;;1.60;;
28529;SDS011;15737;49.760;6.632;2023-05-10T04:10:25;2.67;;;1.97;;
28529;SDS011;15737;49.760;6.632;2023-05-10T04:12:51;2.10;;;1.90;;
28529;SDS011;15737;49.760;6.632;2023-05-10T04:15:16;2.73;;;2.20;;
28529;SDS011;15737;49.760;6.632;2023-05-10T04:17:42;2.50;;;1.80;;
28529;SDS011;15737;49.760;6.632;2023-05-10T04:20:07;3.33;;;1.53;;
28529;SDS011;15737;49.760;6.632;2023-05-10T04:22:33;5.83;;;2.17;;
28529;SDS011;15737;49.760;6.632;2023-05-10T04:24:59;2.77;;;2.13;;
28529;SDS011;15737;49.760;6.632;2023-05-10T04:27:24;2.97;;;1.67;;
28529;SDS011;15737;49.760;6.632;2023-05-10T04:29:50;1.40;;;1.30;;
28529;SDS011;15737;49.760;6.632;2023-05-10T04:32:15;1.90;;;1.80;;
28529;SDS011;15737;49.760;6.632;2023-05-10T04:34:42;5.50;;;1.43;;
28529;SDS011;15737;49.760;6.632;2023-05-10T04:37:08;1.30;;;1.20;;
28529;SDS011;15737;49.760;6.632;2023-05-10T04:39:33;1.37;;;1.27;;
28529;SDS011;15737;49.760;6.632;2023-05-10T04:42:00;1.37;;;1.27;;
28529;SDS011;15737;49.760;6.632;2023-05-10T04:44:25;1.63;;;1.20;;
28529;SDS011;15737;49.760;6.632;2023-05-10T04:46:51;1.30;;;1.20;;
28529;SDS011;15737;49.760;6.632;2023-05-10T04:49:16;2.33;;;1.40;;
28529;SDS011;15737;49.760;6.632;2023-05-10T04:51:42;0.90;;;0.90;;
28529;SDS011;15737;49.760;6.632;2023-05-10T04:54:08;1.07;;;1.07;;
28529;SDS011;15737;49.760;6.632;2023-05-10T04:56:34;0.80;;;0.77;;
28529;SDS011;15737;49.760;6.632;2023-05-10T04:58:59;1.30;;;1.20;;
28529;SDS011;15737;49.760;6.632;2023-05-10T05:01:25;0.97;;;0.97;;
28529;SDS011;15737;49.760;6.632;2023-05-10T05:03:50;0.90;;;0.73;;
28529;SDS011;15737;49.760;6.632;2023-05-10T05:06:17;0.70;;;0.70;;
28529;SDS011;15737;49.760;6.632;2023-05-10T05:08:43;0.90;;;0.90;;
28529;SDS011;15737;49.760;6.632;2023-05-10T05:11:08;0.87;;;0.70;;
28529;SDS011;15737;49.760;6.632;2023-05-10T05:13:34;0.60;;;0.60;;
28529;SDS011;15737;49.760;6.632;2023-05-10T05:16:00;5.07;;;1.10;;
28529;SDS011;15737;49.760;6.632;2023-05-10T05:18:27;0.80;;;0.73;;
28529;SDS011;15737;49.760;6.632;2023-05-10T05:20:53;0.70;;;0.70;;
28529;SDS011;15737;49.760;6.632;2023-05-10T05:23:18;0.50;;;0.50;;
28529;SDS011;15737;49.760;6.632;2023-05-10T05:25:45;0.37;;;0.37;;
28529;SDS011;15737;49.760;6.632;2023-05-10T05:28:11;0.60;;;0.60;;
28529;SDS011;15737;49.760;6.632;2023-05-10T05:30:37;0.53;;;0.53;;
28529;SDS011;15737;49.760;6.632;2023-05-10T05:33:02;0.40;;;0.37;;
28529;SDS011;15737;49.760;6.632;2023-05-10T05:35:28;1.17;;;0.63;;
28529;SDS011;15737;49.760;6.632;2023-05-10T05:37:53;0.23;;;0.23;;
28529;SDS011;15737;49.760;6.632;2023-05-10T05:40:19;0.50;;;0.50;;
28529;SDS011;15737;49.760;6.632;2023-05-10T05:42:45;0.40;;;0.40;;
28529;SDS011;15737;49.760;6.632;2023-05-10T05:45:11;1.30;;;0.40;;
28529;SDS011;15737;49.760;6.632;2023-05-10T05:47:38;0.40;;;0.40;;
28529;SDS011;15737;49.760;6.632;2023-05-10T05:50:04;3.00;;;0.43;;
28529;SDS011;15737;49.760;6.632;2023-05-10T05:52:30;0.40;;;0.40;;
28529;SDS011;15737;49.760;6.632;2023-05-10T05:54:56;0.43;;;0.43;;
28529;SDS011;15737;49.760;6.632;2023-05-10T05:57:21;1.70;;;0.60;;
28529;SDS011;15737;49.760;6.632;2023-05-10T05:59:47;0.37;;;0.37;;
28529;SDS011;15737;49.760;6.632;2023-05-10T06:02:13;1.70;;;0.50;;
28529;SDS011;15737;49.760;6.632;2023-05-10T06:04:38;0.40;;;0.40;;
28529;SDS011;15737;49.760;6.632;2023-05-10T06:07:04;0.40;;;0.40;;
28529;SDS011;15737;49.760;6.632;2023-05-10T06:09:29;0.43;;;0.43;;
28529;SDS011;15737;49.760;6.632;2023-05-10T06:11:55;0.83;;;0.60;;
28529;SDS011;15737;49.760;6.632;2023-05-10T06:14:21;0.53;;;0.53;;
28529;SDS011;15737;49.760;6.632;2023-05-10T06:16:46;0.60;;;0.60;;
28529;SDS011;15737;49.760;6.632;2023-05-10T06:19:12;0.43;;;0.43;;
28529;SDS011;15737;49.760;6.632;2023-05-10T06:21:38;0.30;;;0.30;;
28529;SDS011;15737;49.760;6.632;2023-05-10T06:24:03;0.63;;;0.63;;
28529;SDS011;15737;49.760;6.632;2023-05-10T06:26:31;0.33;;;0.33;;
28529;SDS011;15737;49.760;6.632;2023-05-10T06:28:57;0.33;;;0.33;;
28529;SDS011;15737;49.760;6.632;2023-05-10T06:31:22;0.37;;;0.37;;
28529;SDS011;15737;49.760;6.632;2023-05-10T06:33:48;0.47;;;0.47;;
28529;SDS011;15737;49.760;6.632;2023-05-10T06:36:13;0.40;;;0.40;;
28529;SDS011;15737;49.760;6.632;2023-05-10T06:38:39;0.50;;;0.50;;
28529;SDS011;15737;49.760;6.632;2023-05-10T06:41:04;0.30;;;0.30;;
28529;SDS011;15737;49.760;6.632;2023-05-10T06:43:30;0.40;;;0.40;;
28529;SDS011;15737;49.760;6.632;2023-05-10T06:45:56;0.30;;;0.30;;
28529;SDS011;15737;49.760;6.632;2023-05-10T06:48:22;0.60;;;0.60;;
28529;SDS011;15737;49.760;6.632;2023-05-10T06:50:47;0.40;;;0.40;;
28529;SDS011;15737;49.760;6.632;2023-05-10T06:53:13;0.57;;;0.57;;
28529;SDS011;15737;49.760;6.632;2023-05-10T06:55:40;0.40;;;0.40;;
28529;SDS011;15737;49.760;6.632;2023-05-10T06:58:10;0.93;;;0.50;;
28529;SDS011;15737;49.760;6.632;2023-05-10T07:00:35;0.50;;;0.50;;
28529;SDS011;15737;49.760;6.632;2023-05-10T07:03:05;0.73;;;0.47;;
28529;SDS011;15737;49.760;6.632;2023-05-10T07:05:31;0.50;;;0.50;;
28529;SDS011;15737;49.760;6.632;2023-05-10T07:07:56;2.10;;;0.50;;
28529;SDS011;15737;49.760;6.632;2023-05-10T07:10:22;1.63;;;0.40;;
28529;SDS011;15737;49.760;6.632;2023-05-10T07:12:47;0.63;;;0.27;;
28529;SDS011;15737;49.760;6.632;2023-05-10T07:15:13;0.30;;;0.30;;
28529;SDS011;15737;49.760;6.632;2023-05-10T07:17:38;0.50;;;0.50;;
28529;SDS011;15737;49.760;6.632;2023-05-10T07:20:04;0.20;;;0.20;;
28529;SDS011;15737;49.760;6.632;2023-05-10T07:22:30;0.37;;;0.37;;
28529;SDS011;15737;49.760;6.632;2023-05-10T07:24:56;0.13;;;0.13;;
28529;SDS011;15737;49.760;6.632;2023-05-10T07:27:21;0.33;;;0.30;;
28529;SDS011;15737;49.760;6.632;2023-05-10T07:29:47;1.23;;;0.40;;
28529;SDS011;15737;49.760;6.632;2023-05-10T07:32:12;0.20;;;0.20;;
28529;SDS011;15737;49.760;6.632;2023-05-10T07:34:38;0.30;;;0.30;;
28529;SDS011;15737;49.760;6.632;2023-05-10T07:37:03;0.33;;;0.33;;
28529;SDS011;15737;49.760;6.632;2023-05-10T07:39:29;2.17;;;0.40;;
28529;SDS011;15737;49.760;6.632;2023-05-10T07:41:54;0.40;;;0.40;;
28529;SDS011;15737;49.760;6.632;2023-05-10T07:44:20;0.30;;;0.30;;
28529;SDS011;15737;49.760;6.632;2023-05-10T07:46:46;1.50;;;0.40;;
28529;SDS011;15737;49.760;6.632;2023-05-10T07:49:12;0.20;;;0.20;;
28529;SDS011;15737;49.760;6.632;2023-05-10T07:51:38;0.47;;;0.47;;
28529;SDS011;15737;49.760;6.632;2023-05-10T07:54:03;0.80;;;0.80;;
28529;SDS011;15737;49.760;6.632;2023-05-10T07:56:30;1.50;;;0.50;;
28529;SDS011;15737;49.760;6.632;2023-05-10T07:58:56;0.50;;;0.50;;
28529;SDS011;15737;49.760;6.632;2023-05-10T08:01:26;0.37;;;0.37;;
28529;SDS011;15737;49.760;6.632;2023-05-10T08:03:54;0.50;;;0.50;;
28529;SDS011;15737;49.760;6.632;2023-05-10T08:06:20;0.53;;;0.50;;
28529;SDS011;15737;49.760;6.632;2023-05-10T08:08:46;1.60;;;0.50;;
28529;SDS011;15737;49.760;6.632;2023-05-10T08:11:17;0.60;;;0.60;;
28529;SDS011;15737;49.760;6.632;2023-05-10T08:13:43;3.70;;;0.40;;
28529;SDS011;15737;49.760;6.632;2023-05-10T08:16:12;0.40;;;0.40;;
28529;SDS011;15737;49.760;6.632;2023-05-10T08:18:38;0.50;;;0.50;;
28529;SDS011;15737;49.760;6.632;2023-05-10T08:21:04;2.97;;;0.57;;
28529;SDS011;15737;49.760;6.632;2023-05-10T08:23:31;0.47;;;0.47;;
28529;SDS011;15737;49.760;6.632;2023-05-10T08:25:56;0.43;;;0.43;;
28529;SDS011;15737;49.760;6.632;2023-05-10T08:28:22;1.37;;;1.27;;
28529;SDS011;15737;49.760;6.632;2023-05-10T08:30:49;0.97;;;0.97;;
28529;SDS011;15737;49.760;6.632;2023-05-10T08:33:15;19.73;;;18.93;;
28529;SDS011;15737;49.760;6.632;2023-05-10T08:35:40;31.53;;;30.10;;
28529;SDS011;15737;49.760;6.632;2023-05-10T08:38:07;55.42;;;53.08;;
28529;SDS011;15737;49.760;6.632;2023-05-10T08:40:44;150.32;;;143.35;;
28529;SDS011;15737;49.760;6.632;2023-05-10T08:43:22;168.77;;;161.00;;
28529;SDS011;15737;49.760;6.632;2023-05-10T08:46:00;163.10;;;155.73;;
28529;SDS011;15737;49.760;6.632;2023-05-10T08:48:37;150.37;;;143.37;;
28529;SDS011;15737;49.760;6.632;2023-05-10T08:51:17;125.60;;;120.03;;
28529;SDS011;15737;49.760;6.632;2023-05-10T08:54:03;264.47;;;251.20;;
28529;SDS011;15737;49.760;6.632;2023-05-10T08:56:39;276.27;;;261.17;;
28529;SDS011;15737;49.760;6.632;2023-05-10T08:59:15;175.63;;;166.40;;
28529;SDS011;15737;49.760;6.632;2023-05-10T09:01:49;14.27;;;13.70;;
28529;SDS011;15737;49.760;6.632;2023-05-10T09:04:32;4.80;;;4.70;;
28529;SDS011;15737;49.760;6.632;2023-05-10T09:07:09;1.13;;;1.13;;
28529;SDS011;15737;49.760;6.632;2023-05-10T09:09:45;1.40;;;1.40;;
28529;SDS011;15737;49.760;6.632;2023-05-10T09:12:25;11.13;;;10.73;;
28529;SDS011;15737;49.760;6.632;2023-05-10T09:15:03;0.60;;;0.60;;
28529;SDS011;15737;49.760;6.632;2023-05-10T09:17:41;0.63;;;0.63;;
28529;SDS011;15737;49.760;6.632;2023-05-10T09:20:23;0.00;;;0.00;;
28529;SDS011;15737;49.760;6.632;2023-05-10T09:22:55;0.40;;;0.40;;
28529;SDS011;15737;49.760;6.632;2023-05-10T09:25:38;0.60;;;0.60;;
28529;SDS011;15737;49.760;6.632;2023-05-10T09:28:17;0.40;;;0.37;;
28529;SDS011;15737;49.760;6.632;2023-05-10T09:30:53;0.60;;;0.60;;
28529;SDS011;15737;49.760;6.632;2023-05-10T09:33:26;4.13;;;0.80;;
28529;SDS011;15737;49.760;6.632;2023-05-10T09:36:18;0.50;;;0.50;;
28529;SDS011;15737;49.760;6.632;2023-05-10T09:39:03;0.77;;;0.60;;
28529;SDS011;15737;49.760;6.632;2023-05-10T09:41:37;0.70;;;0.70;;
28529;SDS011;15737;49.760;6.632;2023-05-10T09:44:18;0.30;;;0.30;;
28529;SDS011;15737;49.760;6.632;2023-05-10T09:46:58;0.60;;;0.60;;
28529;SDS011;15737;49.760;6.632;2023-05-10T09:49:34;0.50;;;0.50;;
28529;SDS011;15737;49.760;6.632;2023-05-10T09:52:07;0.50;;;0.50;;
28529;SDS011;15737;49.760;6.632;2023-05-10T09:54:55;0.63;;;0.63;;
28529;SDS011;15737;49.760;6.632;2023-05-10T09:57:35;2.97;;;0.90;;
28529;SDS011;15737;49.760;6.632;2023-05-10T10:00:14;0.77;;;0.77;;
28529;SDS011;15737;49.760;6.632;2023-05-10T10:03:03;0.83;;;0.83;;
28529;SDS011;15737;49.760;6.632;2023-05-10T10:05:48;1.00;;;1.00;;
28529;SDS011;15737;49.760;6.632;2023-05-10T10:08:34;0.80;;;0.80;;
28529;SDS011;15737;49.760;6.632;2023-05-10T10:11:09;1.77;;;0.87;;
28529;SDS011;15737;49.760;6.632;2023-05-10T10:13:48;1.40;;;1.30;;
28529;SDS011;15737;49.760;6.632;2023-05-10T10:16:18;1.43;;;1.40;;
28529;SDS011;15737;49.760;6.632;2023-05-10T10:18:45;1.03;;;1.03;;
28529;SDS011;15737;49.760;6.632;2023-05-10T10:21:12;40.57;;;38.57;;
28529;SDS011;15737;49.760;6.632;2023-05-10T10:23:39;68.63;;;65.60;;
28529;SDS011;15737;49.760;6.632;2023-05-10T10:26:05;120.80;;;115.13;;
28529;SDS011;15737;49.760;6.632;2023-05-10T10:36:51;34.67;;;33.20;;
28529;SDS011;15737;49.760;6.632;2023-05-10T10:39:17;9.87;;;9.43;;
28529;SDS011;15737;49.760;6.632;2023-05-10T10:44:37;1.17;;;1.03;;
28529;SDS011;15737;49.760;6.632;2023-05-10T10:52:43;1.43;;;1.00;;
28529;SDS011;15737;49.760;6.632;2023-05-10T10:55:19;93.90;;;89.67;;
28529;SDS011;15737;49.760;6.632;2023-05-10T10:58:01;2.57;;;1.90;;
28529;SDS011;15737;49.760;6.632;2023-05-10T11:00:41;0.93;;;0.90;;
28529;SDS011;15737;49.760;6.632;2023-05-10T11:03:17;0.93;;;0.60;;
28529;SDS011;15737;49.760;6.632;2023-05-10T11:06:00;2.63;;;0.73;;
28529;SDS011;15737;49.760;6.632;2023-05-10T11:08:40;1.10;;;0.80;;
28529;SDS011;15737;49.760;6.632;2023-05-10T11:11:12;7.07;;;0.90;;
28529;SDS011;15737;49.760;6.632;2023-05-10T11:13:46;1.07;;;0.93;;
28529;SDS011;15737;49.760;6.632;2023-05-10T11:16:21;3.47;;;1.03;;
28529;SDS011;15737;49.760;6.632;2023-05-10T11:19:02;1.17;;;1.07;;
28529;SDS011;15737;49.760;6.632;2023-05-10T11:21:48;0.97;;;0.90;;
28529;SDS011;15737;49.760;6.632;2023-05-10T11:24:55;1.00;;;0.90;;
28529;SDS011;15737;49.760;6.632;2023-05-10T11:27:36;0.70;;;0.70;;
28529;SDS011;15737;49.760;6.632;2023-05-10T11:30:13;1.43;;;0.83;;
28529;SDS011;15737;49.760;6.632;2023-05-10T11:32:52;0.27;;;0.27;;
28529;SDS011;15737;49.760;6.632;2023-05-10T11:35:47;1.02;;;0.30;;
28529;SDS011;15737;49.760;6.632;2023-05-10T11:38:25;0.47;;;0.47;;
28529;SDS011;15737;49.760;6.632;2023-05-10T11:41:03;0.60;;;0.60;;
28529;SDS011;15737;49.760;6.632;2023-05-10T11:43:41;3.60;;;0.70;;
28529;SDS011;15737;49.760;6.632;2023-05-10T11:46:22;0.68;;;0.57;;
28529;SDS011;15737;49.760;6.632;2023-05-10T11:49:00;0.40;;;0.40;;
28529;SDS011;15737;49.760;6.632;2023-05-10T11:51:35;0.70;;;0.70;;
28529;SDS011;15737;49.760;6.632;2023-05-10T11:54:16;0.50;;;0.50;;
28529;SDS011;15737;49.760;6.632;2023-05-10T11:56:50;0.40;;;0.40;;
28529;SDS011;15737;49.760;6.632;2023-05-10T11:59:17;0.40;;;0.40;;
28529;SDS011;15737;49.760;6.632;2023-05-10T12:01:43;0.40;;;0.40;;
28529;SDS011;15737;49.760;6.632;2023-05-10T12:04:08;0.60;;;0.60;;
28529;SDS011;15737;49.760;6.632;2023-05-10T12:06:40;0.35;;;0.35;;
28529;SDS011;15737;49.760;6.632;2023-05-10T12:09:06;0.60;;;0.50;;
28529;SDS011;15737;49.760;6.632;2023-05-10T12:11:35;0.22;;;0.20;;
28529;SDS011;15737;49.760;6.632;2023-05-10T12:14:03;0.60;;;0.57;;
28529;SDS011;15737;49.760;6.632;2023-05-10T12:16:30;2.35;;;0.55;;
28529;SDS011;15737;49.760;6.632;2023-05-10T12:18:56;0.50;;;0.40;;
28529;SDS011;15737;49.760;6.632;2023-05-10T12:21:23;0.90;;;0.57;;
28529;SDS011;15737;49.760;6.632;2023-05-10T12:23:52;1.92;;;0.60;;
28529;SDS011;15737;49.760;6.632;2023-05-10T12:26:22;0.70;;;0.70;;
28529;SDS011;15737;49.760;6.632;2023-05-10T12:28:49;0.40;;;0.40;;
28529;SDS011;15737;49.760;6.632;2023-05-10T12:31:15;1.20;;;0.80;;
28529;SDS011;15737;49.760;6.632;2023-05-10T12:33:44;1.35;;;0.70;;
28529;SDS011;15737;49.760;6.632;2023-05-10T12:36:11;0.90;;;0.57;;
28529;SDS011;15737;49.760;6.632;2023-05-10T12:38:39;1.77;;;0.68;;
28529;SDS011;15737;49.760;6.632;2023-05-10T12:41:10;1.58;;;0.70;;
28529;SDS011;15737;49.760;6.632;2023-05-10T12:43:37;1.10;;;0.30;;
28529;SDS011;15737;49.760;6.632;2023-05-10T12:48:31;0.38;;;0.38;;
28529;SDS011;15737;49.760;6.632;2023-05-10T12:50:58;0.60;;;0.40;;
28529;SDS011;15737;49.760;6.632;2023-05-10T12:53:24;0.57;;;0.40;;
28529;SDS011;15737;49.760;6.632;2023-05-10T12:55:50;0.47;;;0.47;;
28529;SDS011;15737;49.760;6.632;2023-05-10T12:58:16;0.50;;;0.50;;
28529;SDS011;15737;49.760;6.632;2023-05-10T13:00:41;1.58;;;0.73;;
28529;SDS011;15737;49.760;6.632;2023-05-10T13:03:08;0.65;;;0.60;;
28529;SDS011;15737;49.760;6.632;2023-05-10T13:05:34;0.57;;;0.57;;
28529;SDS011;15737;49.760;6.632;2023-05-10T13:08:00;0.60;;;0.40;;
28529;SDS011;15737;49.760;6.632;2023-05-10T13:10:25;0.57;;;0.52;;
28529;SDS011;15737;49.760;6.632;2023-05-10T13:12:51;1.75;;;0.40;;
28529;SDS011;15737;49.760;6.632;2023-05-10T13:15:17;0.40;;;0.40;;
28529;SDS011;15737;49.760;6.632;2023-05-10T13:17:42;3.70;;;0.57;;
28529;SDS011;15737;49.760;6.632;2023-05-10T13:20:08;0.57;;;0.50;;
28529;SDS011;15737;49.760;6.632;2023-05-10T13:22:34;0.50;;;0.50;;
28529;SDS011;15737;49.760;6.632;2023-05-10T13:25:00;0.40;;;0.40;;
28529;SDS011;15737;49.760;6.632;2023-05-10T13:27:27;0.38;;;0.38;;
28529;SDS011;15737;49.760;6.632;2023-05-10T13:29:52;0.45;;;0.35;;
28529;SDS011;15737;49.760;6.632;2023-05-10T13:32:20;0.40;;;0.40;;
28529;SDS011;15737;49.760;6.632;2023-05-10T13:35:03;0.47;;;0.47;;
28529;SDS011;15737;49.760;6.632;2023-05-10T13:37:39;2.10;;;0.55;;
28529;SDS011;15737;49.760;6.632;2023-05-10T13:40:18;0.30;;;0.30;;
28529;SDS011;15737;49.760;6.632;2023-05-10T13:43:04;0.43;;;0.40;;
28529;SDS011;15737;49.760;6.632;2023-05-10T13:45:50;0.88;;;0.43;;
28529;SDS011;15737;49.760;6.632;2023-05-10T13:48:29;0.90;;;0.50;;
28529;SDS011;15737;49.760;6.632;2023-05-10T13:51:12;1.00;;;0.30;;
28529;SDS011;15737;49.760;6.632;2023-05-10T13:53:51;0.30;;;0.30;;
28529;SDS011;15737;49.760;6.632;2023-05-10T13:56:30;0.40;;;0.40;;
28529;SDS011;15737;49.760;6.632;2023-05-10T13:59:01;0.40;;;0.40;;
28529;SDS011;15737;49.760;6.632;2023-05-10T14:01:36;1.05;;;0.40;;
28529;SDS011;15737;49.760;6.632;2023-05-10T14:04:01;0.52;;;0.52;;
28529;SDS011;15737;49.760;6.632;2023-05-10T14:06:27;0.50;;;0.50;;
28529;SDS011;15737;49.760;6.632;2023-05-10T14:08:52;0.43;;;0.43;;
28529;SDS011;15737;49.760;6.632;2023-05-10T14:11:18;0.47;;;0.47;;
28529;SDS011;15737;49.760;6.632;2023-05-10T14:13:44;2.22;;;0.52;;
28529;SDS011;15737;49.760;6.632;2023-05-10T14:16:10;0.50;;;0.50;;
28529;SDS011;15737;49.760;6.632;2023-05-10T14:18:36;0.55;;;0.55;;
28529;SDS011;15737;49.760;6.632;2023-05-10T14:21:02;0.85;;;0.50;;
28529;SDS011;15737;49.760;6.632;2023-05-10T14:23:28;0.40;;;0.40;;
28529;SDS011;15737;49.760;6.632;2023-05-10T14:25:55;1.30;;;0.57;;
28529;SDS011;15737;49.760;6.632;2023-05-10T14:28:20;0.73;;;0.68;;
28529;SDS011;15737;49.760;6.632;2023-05-10T14:30:47;1.23;;;0.50;;
28529;SDS011;15737;49.760;6.632;2023-05-10T14:33:13;0.20;;;0.20;;
28529;SDS011;15737;49.760;6.632;2023-05-10T14:35:38;0.95;;;0.60;;
28529;SDS011;15737;49.760;6.632;2023-05-10T14:38:04;0.35;;;0.35;;
28529;SDS011;15737;49.760;6.632;2023-05-10T14:40:30;1.80;;;0.63;;
28529;SDS011;15737;49.760;6.632;2023-05-10T14:42:55;0.30;;;0.30;;
28529;SDS011;15737;49.760;6.632;2023-05-10T14:45:21;0.68;;;0.68;;
28529;SDS011;15737;49.760;6.632;2023-05-10T14:47:47;0.55;;;0.40;;
28529;SDS011;15737;49.760;6.632;2023-05-10T14:50:13;0.38;;;0.38;;
28529;SDS011;15737;49.760;6.632;2023-05-10T14:52:39;0.35;;;0.35;;
28529;SDS011;15737;49.760;6.632;2023-05-10T14:55:05;0.43;;;0.43;;
28529;SDS011;15737;49.760;6.632;2023-05-10T14:57:31;0.55;;;0.55;;
28529;SDS011;15737;49.760;6.632;2023-05-10T14:59:57;1.73;;;0.45;;
28529;SDS011;15737;49.760;6.632;2023-05-10T15:02:23;1.02;;;0.43;;
28529;SDS011;15737;49.760;6.632;2023-05-10T15:04:48;0.63;;;0.40;;
28529;SDS011;15737;49.760;6.632;2023-05-10T15:07:14;0.40;;;0.30;;
28529;SDS011;15737;49.760;6.632;2023-05-10T15:09:41;0.30;;;0.30;;
28529;SDS011;15737;49.760;6.632;2023-05-10T15:12:06;0.80;;;0.55;;
28529;SDS011;15737;49.760;6.632;2023-05-10T15:14:32;0.20;;;0.20;;
28529;SDS011;15737;49.760;6.632;2023-05-10T15:16:58;0.55;;;0.43;;
28529;SDS011;15737;49.760;6.632;2023-05-10T15:19:23;0.30;;;0.30;;
28529;SDS011;15737;49.760;6.632;2023-05-10T15:21:49;0.30;;;0.30;;
28529;SDS011;15737;49.760;6.632;2023-05-10T15:24:14;0.20;;;0.20;;
28529;SDS011;15737;49.760;6.632;2023-05-10T15:26:40;0.40;;;0.40;;
28529;SDS011;15737;49.760;6.632;2023-05-10T15:29:06;1.40;;;0.40;;